createdAt,value
2023-05-19T00:00:31.321Z,1024.57
2023-05-19T00:01:30.992Z,1024.63
2023-05-19T00:02:31.075Z,1024.62
2023-05-19T00:03:30.990Z,1024.64
2023-05-19T00:04:30.921Z,1024.65
2023-05-19T00:05:31.033Z,1024.63
2023-05-19T00:06:30.939Z,1024.63
2023-05-19T00:07:30.923Z,1024.65
2023-05-19T00:08:30.870Z,1024.64
2023-05-19T00:09:30.896Z,1024.65
2023-05-19T00:10:31.047Z,1024.64
2023-05-19T00:11:30.848Z,1024.64
2023-05-19T00:12:30.872Z,1024.63
2023-05-19T00:13:30.816Z,1024.67
2023-05-19T00:14:30.882Z,1024.64
2023-05-19T00:15:30.849Z,1024.66
2023-05-19T00:16:30.891Z,1024.62
2023-05-19T00:17:30.805Z,1024.64
2023-05-19T00:18:30.783Z,1024.67
2023-05-19T00:19:30.742Z,1024.67
2023-05-19T00:20:30.887Z,1024.69
2023-05-19T00:21:30.752Z,1024.65
2023-05-19T00:22:30.692Z,1024.66
2023-05-19T00:23:30.691Z,1024.65
2023-05-19T00:24:30.706Z,1024.65
2023-05-19T00:25:30.664Z,1024.66
2023-05-19T00:26:30.668Z,1024.66
2023-05-19T00:27:30.642Z,1024.66
2023-05-19T00:28:30.625Z,1024.65
2023-05-19T00:29:30.629Z,1024.68
2023-05-19T00:30:30.902Z,1024.66
2023-05-19T00:31:30.677Z,1024.65
2023-05-19T00:32:30.624Z,1024.63
2023-05-19T00:33:30.602Z,1024.67
2023-05-19T00:34:30.624Z,1024.67
2023-05-19T00:35:30.547Z,1024.67
2023-05-19T00:36:30.564Z,1024.63
2023-05-19T00:37:30.522Z,1024.65
2023-05-19T00:38:30.575Z,1024.67
2023-05-19T00:39:30.524Z,1024.68
2023-05-19T00:40:30.682Z,1024.62
2023-05-19T00:41:30.497Z,1024.68
2023-05-19T00:42:30.502Z,1024.67
2023-05-19T00:43:30.443Z,1024.68
2023-05-19T00:44:30.439Z,1024.68
2023-05-19T00:45:30.424Z,1024.68
2023-05-19T00:46:30.482Z,1024.65
2023-05-19T00:47:30.472Z,1024.67
2023-05-19T00:48:30.415Z,1024.65
2023-05-19T00:49:30.384Z,1024.66
2023-05-19T00:50:30.716Z,1024.61
2023-05-19T00:51:30.364Z,1024.64
2023-05-19T00:52:30.328Z,1024.61
2023-05-19T00:53:30.336Z,1024.57
2023-05-19T00:54:30.310Z,1024.60
2023-05-19T00:55:30.328Z,1024.61
2023-05-19T00:56:30.305Z,1024.61
2023-05-19T00:57:30.288Z,1024.66
2023-05-19T00:58:30.421Z,1024.65
2023-05-19T00:59:30.267Z,1024.65
2023-05-19T01:00:30.483Z,1024.67
2023-05-19T01:01:30.334Z,1024.68
2023-05-19T01:02:30.279Z,1024.66
2023-05-19T01:03:30.346Z,1024.67
2023-05-19T01:04:30.182Z,1024.67
2023-05-19T01:05:30.253Z,1024.65
2023-05-19T01:06:30.166Z,1024.66
2023-05-19T01:07:30.171Z,1024.64
2023-05-19T01:08:30.142Z,1024.65
2023-05-19T01:09:30.122Z,1024.63
2023-05-19T01:10:30.310Z,1024.63
2023-05-19T01:11:30.163Z,1024.60
2023-05-19T01:12:30.089Z,1024.63
2023-05-19T01:13:30.148Z,1024.62
2023-05-19T01:14:30.071Z,1024.64
2023-05-19T01:15:30.062Z,1024.63
2023-05-19T01:16:30.107Z,1024.61
2023-05-19T01:17:30.090Z,1024.61
2023-05-19T01:18:30.060Z,1024.60
2023-05-19T01:19:29.996Z,1024.63
2023-05-19T01:20:30.234Z,1024.62
2023-05-19T01:21:30.023Z,1024.62
2023-05-19T01:22:29.993Z,1024.59
2023-05-19T01:23:29.950Z,1024.64
2023-05-19T01:24:29.952Z,1024.61
2023-05-19T01:25:29.928Z,1024.63
2023-05-19T01:26:29.943Z,1024.58
2023-05-19T01:27:29.907Z,1024.57
2023-05-19T01:28:29.905Z,1024.52
2023-05-19T01:29:29.946Z,1024.56
2023-05-19T01:30:30.007Z,1024.53
2023-05-19T01:31:29.907Z,1024.53
2023-05-19T01:32:29.879Z,1024.55
2023-05-19T01:33:29.873Z,1024.51
2023-05-19T01:34:29.819Z,1024.53
2023-05-19T01:35:29.812Z,1024.52
2023-05-19T01:36:29.807Z,1024.54
2023-05-19T01:37:29.778Z,1024.53
2023-05-19T01:38:29.755Z,1024.53
2023-05-19T01:39:29.760Z,1024.55
2023-05-19T01:40:29.975Z,1024.54
2023-05-19T01:41:29.764Z,1024.53
2023-05-19T01:42:29.728Z,1024.54
2023-05-19T01:43:29.727Z,1024.56
2023-05-19T01:44:29.752Z,1024.58
2023-05-19T01:45:29.673Z,1024.56
2023-05-19T01:46:29.735Z,1024.60
2023-05-19T01:47:29.741Z,1024.61
2023-05-19T01:48:29.655Z,1024.59
2023-05-19T01:49:29.650Z,1024.60
2023-05-19T01:50:29.799Z,1024.63
2023-05-19T01:51:29.610Z,1024.65
2023-05-19T01:52:29.609Z,1024.62
2023-05-19T01:53:29.607Z,1024.65
2023-05-19T01:54:29.566Z,1024.66
2023-05-19T01:55:29.585Z,1024.67
2023-05-19T01:56:29.580Z,1024.68
2023-05-19T01:57:29.549Z,1024.68
2023-05-19T01:58:29.562Z,1024.68
2023-05-19T01:59:29.540Z,1024.64
2023-05-19T02:00:29.600Z,1024.66
2023-05-19T02:01:32.489Z,1024.66
2023-05-19T02:02:29.519Z,1024.64
2023-05-19T02:03:29.522Z,1024.65
2023-05-19T02:04:29.542Z,1024.65
2023-05-19T02:05:29.446Z,1024.67
2023-05-19T02:06:29.438Z,1024.66
2023-05-19T02:07:29.437Z,1024.64
2023-05-19T02:08:29.395Z,1024.63
2023-05-19T02:09:29.392Z,1024.64
2023-05-19T02:10:29.477Z,1024.69
2023-05-19T02:11:29.351Z,1024.65
2023-05-19T02:12:29.408Z,1024.67
2023-05-19T02:13:29.410Z,1024.66
2023-05-19T02:14:29.328Z,1024.70
2023-05-19T02:15:29.341Z,1024.71
2023-05-19T02:16:29.344Z,1024.70
2023-05-19T02:17:29.385Z,1024.71
2023-05-19T02:18:29.264Z,1024.71
2023-05-19T02:19:29.336Z,1024.68
2023-05-19T02:20:29.233Z,1024.70
2023-05-19T02:21:29.231Z,1024.69
2023-05-19T02:22:29.224Z,1024.66
2023-05-19T02:23:29.274Z,1024.66
2023-05-19T02:24:29.198Z,1024.70
2023-05-19T02:25:29.209Z,1024.70
2023-05-19T02:26:29.168Z,1024.74
2023-05-19T02:27:29.166Z,1024.74
2023-05-19T02:28:29.154Z,1024.74
2023-05-19T02:29:29.187Z,1024.70
2023-05-19T02:30:29.134Z,1024.71
2023-05-19T02:31:29.157Z,1024.71
2023-05-19T02:32:29.111Z,1024.67
2023-05-19T02:33:29.094Z,1024.69
2023-05-19T02:34:29.130Z,1024.66
2023-05-19T02:35:29.058Z,1024.63
2023-05-19T02:36:30.052Z,1024.61
2023-05-19T02:37:29.119Z,1024.62
2023-05-19T02:38:29.024Z,1024.58
2023-05-19T02:39:29.202Z,1024.55
2023-05-19T02:40:29.099Z,1024.52
2023-05-19T02:41:29.008Z,1024.49
2023-05-19T02:42:29.108Z,1024.51
2023-05-19T02:43:28.957Z,1024.50
2023-05-19T02:44:28.932Z,1024.51
2023-05-19T02:45:28.968Z,1024.49
2023-05-19T02:46:28.997Z,1024.49
2023-05-19T02:47:37.646Z,1024.50
2023-05-19T02:48:28.909Z,1024.46
2023-05-19T02:49:28.927Z,1024.48
2023-05-19T02:50:28.889Z,1024.46
2023-05-19T02:51:28.862Z,1024.44
2023-05-19T02:52:29.037Z,1024.42
2023-05-19T02:53:28.831Z,1024.38
2023-05-19T02:54:28.828Z,1024.39
2023-05-19T02:55:28.956Z,1024.42
2023-05-19T02:56:28.801Z,1024.43
2023-05-19T02:57:28.830Z,1024.41
2023-05-19T02:58:28.911Z,1024.41
2023-05-19T02:59:28.778Z,1024.42
2023-05-19T03:00:28.848Z,1024.42
2023-05-19T03:01:28.786Z,1024.43
2023-05-19T03:02:28.840Z,1024.39
2023-05-19T03:03:28.854Z,1024.39
2023-05-19T03:04:28.705Z,1024.41
2023-05-19T03:05:28.724Z,1024.39
2023-05-19T03:06:28.723Z,1024.41
2023-05-19T03:07:28.674Z,1024.40
2023-05-19T03:08:28.651Z,1024.41
2023-05-19T03:09:28.654Z,1024.40
2023-05-19T03:10:31.256Z,1024.41
2023-05-19T03:11:28.663Z,1024.40
2023-05-19T03:12:28.596Z,1024.44
2023-05-19T03:13:28.615Z,1024.44
2023-05-19T03:14:28.599Z,1024.46
2023-05-19T03:15:28.595Z,1024.48
2023-05-19T03:16:28.611Z,1024.47
2023-05-19T03:17:28.680Z,1024.46
2023-05-19T03:18:28.677Z,1024.51
2023-05-19T03:19:28.581Z,1024.47
2023-05-19T03:20:28.629Z,1024.49
2023-05-19T03:21:28.516Z,1024.47
2023-05-19T03:22:28.485Z,1024.47
2023-05-19T03:23:28.548Z,1024.47
2023-05-19T03:24:28.467Z,1024.49
2023-05-19T03:25:28.491Z,1024.51
2023-05-19T03:26:28.453Z,1024.49
2023-05-19T03:27:28.411Z,1024.53
2023-05-19T03:28:28.432Z,1024.52
2023-05-19T03:29:28.419Z,1024.51
2023-05-19T03:30:28.383Z,1024.53
2023-05-19T03:31:28.384Z,1024.49
2023-05-19T03:32:28.447Z,1024.48
2023-05-19T03:33:28.408Z,1024.49
2023-05-19T03:34:28.430Z,1024.49
2023-05-19T03:35:28.454Z,1024.50
2023-05-19T03:36:28.346Z,1024.44
2023-05-19T03:37:28.340Z,1024.50
2023-05-19T03:38:28.307Z,1024.49
2023-05-19T03:39:28.398Z,1024.52
2023-05-19T03:40:28.275Z,1024.50
2023-05-19T03:41:28.247Z,1024.51
2023-05-19T03:42:28.275Z,1024.48
2023-05-19T03:43:28.205Z,1024.50
2023-05-19T03:44:28.383Z,1024.51
2023-05-19T03:45:28.376Z,1024.54
2023-05-19T03:46:28.474Z,1024.55
2023-05-19T03:47:28.234Z,1024.52
2023-05-19T03:48:28.211Z,1024.50
2023-05-19T03:49:28.165Z,1024.57
2023-05-19T03:50:28.147Z,1024.53
2023-05-19T03:51:28.123Z,1024.53
2023-05-19T03:52:28.126Z,1024.61
2023-05-19T03:53:28.138Z,1024.54
2023-05-19T03:54:28.150Z,1024.53
2023-05-19T03:55:28.092Z,1024.52
2023-05-19T03:56:28.109Z,1024.58
2023-05-19T03:57:28.051Z,1024.59
2023-05-19T03:58:28.087Z,1024.58
2023-05-19T03:59:28.029Z,1024.59
2023-05-19T04:00:28.068Z,1024.50
2023-05-19T04:01:28.016Z,1024.56
2023-05-19T04:02:28.036Z,1024.52
2023-05-19T04:03:27.973Z,1024.47
2023-05-19T04:04:27.994Z,1024.51
2023-05-19T04:05:27.935Z,1024.46
2023-05-19T04:06:27.985Z,1024.47
2023-05-19T04:07:28.015Z,1024.47
2023-05-19T04:08:27.945Z,1024.45
2023-05-19T04:09:27.905Z,1024.50
2023-05-19T04:10:28.030Z,1024.51
2023-05-19T04:11:27.897Z,1024.53
2023-05-19T04:12:27.865Z,1024.54
2023-05-19T04:13:27.924Z,1024.54
2023-05-19T04:14:27.838Z,1024.57
2023-05-19T04:15:27.920Z,1024.57
2023-05-19T04:16:28.118Z,1024.57
2023-05-19T04:17:27.907Z,1024.57
2023-05-19T04:18:29.187Z,1024.53
2023-05-19T04:19:27.949Z,1024.60
2023-05-19T04:20:27.765Z,1024.60
2023-05-19T04:21:27.761Z,1024.57
2023-05-19T04:22:27.754Z,1024.60
2023-05-19T04:23:27.754Z,1024.61
2023-05-19T04:24:27.737Z,1024.67
2023-05-19T04:25:27.711Z,1024.64
2023-05-19T04:26:27.691Z,1024.66
2023-05-19T04:27:27.699Z,1024.66
2023-05-19T04:28:27.688Z,1024.68
2023-05-19T04:29:27.665Z,1024.70
2023-05-19T04:30:27.627Z,1024.68
2023-05-19T04:31:27.644Z,1024.64
2023-05-19T04:32:27.645Z,1024.65
2023-05-19T04:33:27.578Z,1024.62
2023-05-19T04:34:27.680Z,1024.62
2023-05-19T04:35:27.542Z,1024.61
2023-05-19T04:36:27.614Z,1024.62
2023-05-19T04:37:27.612Z,1024.60
2023-05-19T04:38:27.600Z,1024.58
2023-05-19T04:39:27.551Z,1024.57
2023-05-19T04:40:27.521Z,1024.56
2023-05-19T04:41:27.510Z,1024.58
2023-05-19T04:42:27.635Z,1024.53
2023-05-19T04:43:27.493Z,1024.58
2023-05-19T04:44:27.507Z,1024.62
2023-05-19T04:45:27.472Z,1024.58
2023-05-19T04:46:27.490Z,1024.60
2023-05-19T04:47:27.496Z,1024.60
2023-05-19T04:48:27.415Z,1024.61
2023-05-19T04:49:27.467Z,1024.66
2023-05-19T04:50:27.429Z,1024.66
2023-05-19T04:51:28.311Z,1024.67
2023-05-19T04:52:27.461Z,1024.63
2023-05-19T04:53:27.353Z,1024.62
2023-05-19T04:54:27.362Z,1024.64
2023-05-19T04:55:27.354Z,1024.65
2023-05-19T04:56:27.488Z,1024.67
2023-05-19T04:57:27.390Z,1024.70
2023-05-19T04:58:27.294Z,1024.68
2023-05-19T04:59:27.321Z,1024.71
2023-05-19T05:00:27.326Z,1024.68
2023-05-19T05:01:28.378Z,1024.68
2023-05-19T05:02:27.294Z,1024.68
2023-05-19T05:03:27.319Z,1024.71
2023-05-19T05:04:27.209Z,1024.66
2023-05-19T05:05:27.239Z,1024.70
2023-05-19T05:06:27.288Z,1024.70
2023-05-19T05:07:27.221Z,1024.68
2023-05-19T05:08:27.263Z,1024.63
2023-05-19T05:09:27.173Z,1024.67
2023-05-19T05:10:27.173Z,1024.62
2023-05-19T05:11:27.162Z,1024.68
2023-05-19T05:12:27.146Z,1024.63
2023-05-19T05:13:27.105Z,1024.63
2023-05-19T05:14:27.124Z,1024.66
2023-05-19T05:15:27.149Z,1024.65
2023-05-19T05:16:27.142Z,1024.61
2023-05-19T05:17:27.103Z,1024.64
2023-05-19T05:18:27.077Z,1024.66
2023-05-19T05:19:27.188Z,1024.63
2023-05-19T05:20:27.002Z,1024.66
2023-05-19T05:21:27.022Z,1024.69
2023-05-19T05:22:26.993Z,1024.69
2023-05-19T05:23:27.728Z,1024.66
2023-05-19T05:24:26.948Z,1024.70
2023-05-19T05:25:26.955Z,1024.66
2023-05-19T05:26:26.944Z,1024.70
2023-05-19T05:27:26.904Z,1024.69
2023-05-19T05:28:26.928Z,1024.68
2023-05-19T05:29:26.965Z,1024.65
2023-05-19T05:30:26.916Z,1024.68
2023-05-19T05:31:26.883Z,1024.66
2023-05-19T05:32:26.938Z,1024.66
2023-05-19T05:33:27.022Z,1024.66
2023-05-19T05:34:26.818Z,1024.65
2023-05-19T05:35:26.993Z,1024.67
2023-05-19T05:36:26.818Z,1024.59
2023-05-19T05:37:26.817Z,1024.61
2023-05-19T05:38:26.782Z,1024.63
2023-05-19T05:39:26.753Z,1024.65
2023-05-19T05:40:26.751Z,1024.65
2023-05-19T05:41:26.737Z,1024.62
2023-05-19T05:42:28.871Z,1024.63
2023-05-19T05:43:26.709Z,1024.65
2023-05-19T05:44:26.710Z,1024.60
2023-05-19T05:45:26.649Z,1024.59
2023-05-19T05:46:26.663Z,1024.57
2023-05-19T05:47:26.853Z,1024.55
2023-05-19T05:48:26.682Z,1024.55
2023-05-19T05:49:26.649Z,1024.54
2023-05-19T05:50:26.616Z,1024.55
2023-05-19T05:51:26.636Z,1024.54
2023-05-19T05:52:26.587Z,1024.56
2023-05-19T05:53:26.553Z,1024.57
2023-05-19T05:54:26.631Z,1024.58
2023-05-19T05:55:26.647Z,1024.56
2023-05-19T05:56:26.574Z,1024.54
2023-05-19T05:57:26.529Z,1024.53
2023-05-19T05:58:26.526Z,1024.50
2023-05-19T05:59:26.475Z,1024.51
2023-05-19T06:00:26.462Z,1024.52
2023-05-19T06:01:26.492Z,1024.50
2023-05-19T06:02:26.530Z,1024.50
2023-05-19T06:03:26.459Z,1024.47
2023-05-19T06:04:26.509Z,1024.45
2023-05-19T06:05:26.534Z,1024.48
2023-05-19T06:06:26.393Z,1024.44
2023-05-19T06:07:26.358Z,1024.41
2023-05-19T06:08:26.377Z,1024.40
2023-05-19T06:09:26.312Z,1024.43
2023-05-19T06:10:26.375Z,1024.42
2023-05-19T06:11:26.367Z,1024.42
2023-05-19T06:12:26.303Z,1024.41
2023-05-19T06:13:26.897Z,1024.45
2023-05-19T06:14:26.293Z,1024.40
2023-05-19T06:15:26.297Z,1024.43
2023-05-19T06:16:26.290Z,1024.42
2023-05-19T06:17:26.286Z,1024.41
2023-05-19T06:18:26.224Z,1024.40
2023-05-19T06:19:26.272Z,1024.41
2023-05-19T06:20:26.219Z,1024.38
2023-05-19T06:21:26.158Z,1024.39
2023-05-19T06:22:26.195Z,1024.37
2023-05-19T06:23:28.039Z,1024.37
2023-05-19T06:24:26.931Z,1024.35
2023-05-19T06:25:26.847Z,1024.36
2023-05-19T06:26:26.095Z,1024.37
2023-05-19T06:27:26.840Z,1024.36
2023-05-19T06:28:26.046Z,1024.40
2023-05-19T06:29:26.337Z,1024.39
2023-05-19T06:30:27.427Z,1024.42
2023-05-19T06:31:26.077Z,1024.38
2023-05-19T06:32:26.071Z,1024.38
2023-05-19T06:33:28.825Z,1024.38
2023-05-19T06:34:25.996Z,1024.41
2023-05-19T06:35:25.996Z,1024.37
2023-05-19T06:36:26.874Z,1024.40
2023-05-19T06:37:25.949Z,1024.38
2023-05-19T06:38:25.975Z,1024.40
2023-05-19T06:39:25.926Z,1024.38
2023-05-19T06:40:25.973Z,1024.38
2023-05-19T06:41:25.893Z,1024.36
2023-05-19T06:42:25.885Z,1024.38
2023-05-19T06:43:25.879Z,1024.40
2023-05-19T06:44:25.847Z,1024.35
2023-05-19T06:45:25.842Z,1024.39
2023-05-19T06:46:25.858Z,1024.38
2023-05-19T06:47:25.949Z,1024.39
2023-05-19T06:48:25.814Z,1024.42
2023-05-19T06:49:25.791Z,1024.40
2023-05-19T06:50:25.792Z,1024.39
2023-05-19T06:51:25.776Z,1024.41
2023-05-19T06:52:25.735Z,1024.43
2023-05-19T06:53:25.717Z,1024.41
2023-05-19T06:54:25.726Z,1024.42
2023-05-19T06:55:25.666Z,1024.41
2023-05-19T06:56:25.684Z,1024.41
2023-05-19T06:57:25.688Z,1024.39
2023-05-19T06:58:25.651Z,1024.39
2023-05-19T06:59:25.640Z,1024.40
2023-05-19T07:00:25.609Z,1024.39
2023-05-19T07:01:25.643Z,1024.32
2023-05-19T07:02:25.601Z,1024.35
2023-05-19T07:03:25.658Z,1024.34
2023-05-19T07:04:25.556Z,1024.34
2023-05-19T07:05:25.532Z,1024.39
2023-05-19T07:06:25.528Z,1024.35
2023-05-19T07:07:25.526Z,1024.35
2023-05-19T07:08:25.490Z,1024.36
2023-05-19T07:09:25.484Z,1024.37
2023-05-19T07:10:25.450Z,1024.38
2023-05-19T07:11:25.436Z,1024.37
2023-05-19T07:12:25.446Z,1024.42
2023-05-19T07:13:27.366Z,1024.40
2023-05-19T07:14:25.413Z,1024.33
2023-05-19T07:15:25.415Z,1024.35
2023-05-19T07:16:25.423Z,1024.36
2023-05-19T07:17:25.395Z,1024.34
2023-05-19T07:18:25.380Z,1024.34
2023-05-19T07:19:25.430Z,1024.36
2023-05-19T07:20:25.311Z,1024.34
2023-05-19T07:21:25.323Z,1024.35
2023-05-19T07:22:25.297Z,1024.33
2023-05-19T07:23:25.273Z,1024.29
2023-05-19T07:24:25.253Z,1024.26
2023-05-19T07:25:25.240Z,1024.29
2023-05-19T07:26:25.230Z,1024.32
2023-05-19T07:27:25.202Z,1024.29
2023-05-19T07:28:25.241Z,1024.28
2023-05-19T07:29:25.218Z,1024.32
2023-05-19T07:30:25.259Z,1024.25
2023-05-19T07:31:25.190Z,1024.22
2023-05-19T07:32:25.189Z,1024.19
2023-05-19T07:33:25.111Z,1024.25
2023-05-19T07:34:25.115Z,1024.27
2023-05-19T07:35:25.132Z,1024.21
2023-05-19T07:36:25.126Z,1024.22
2023-05-19T07:37:25.066Z,1024.24
2023-05-19T07:38:25.092Z,1024.23
2023-05-19T07:39:25.134Z,1024.20
2023-05-19T07:40:25.095Z,1024.20
2023-05-19T07:41:25.079Z,1024.17
2023-05-19T07:42:25.049Z,1024.24
2023-05-19T07:43:25.023Z,1024.20
2023-05-19T07:44:25.016Z,1024.19
2023-05-19T07:45:24.972Z,1024.16
2023-05-19T07:46:25.085Z,1024.14
2023-05-19T07:47:24.991Z,1024.15
2023-05-19T07:48:24.978Z,1024.19
2023-05-19T07:49:25.048Z,1024.17
2023-05-19T07:50:24.956Z,1024.20
2023-05-19T07:51:24.954Z,1024.17
2023-05-19T07:52:24.892Z,1024.17
2023-05-19T07:53:24.867Z,1024.19
2023-05-19T07:54:24.842Z,1024.12
2023-05-19T07:55:24.844Z,1024.15
2023-05-19T07:56:24.863Z,1024.09
2023-05-19T07:57:24.838Z,1024.11
2023-05-19T07:58:24.806Z,1024.14
2023-05-19T07:59:24.843Z,1024.11
2023-05-19T08:00:24.853Z,1024.11
2023-05-19T08:01:24.796Z,1024.12
2023-05-19T08:02:24.944Z,1024.11
2023-05-19T08:03:24.932Z,1024.09
2023-05-19T08:04:24.736Z,1024.14
2023-05-19T08:05:24.735Z,1024.11
2023-05-19T08:06:24.762Z,1024.13
2023-05-19T08:07:24.760Z,1024.14
2023-05-19T08:08:24.667Z,1024.10
2023-05-19T08:09:24.762Z,1024.08
2023-05-19T08:10:24.702Z,1024.05
2023-05-19T08:11:24.706Z,1024.07
2023-05-19T08:12:24.627Z,1024.04
2023-05-19T08:13:24.644Z,1024.06
2023-05-19T08:14:24.653Z,1024.09
2023-05-19T08:15:24.614Z,1024.10
2023-05-19T08:16:24.603Z,1024.08
2023-05-19T08:17:24.597Z,1024.06
2023-05-19T08:18:24.508Z,1024.06
2023-05-19T08:19:24.566Z,1024.01
2023-05-19T08:20:24.526Z,1024.04
2023-05-19T08:21:24.509Z,1024.00
2023-05-19T08:22:24.517Z,1023.97
2023-05-19T08:23:24.474Z,1023.96
2023-05-19T08:24:24.471Z,1023.98
2023-05-19T08:25:24.438Z,1023.95
2023-05-19T08:26:24.402Z,1023.91
2023-05-19T08:27:24.404Z,1023.93
2023-05-19T08:28:25.106Z,1023.92
2023-05-19T08:29:24.402Z,1023.88
2023-05-19T08:30:24.432Z,1023.89
2023-05-19T08:31:24.461Z,1023.88
2023-05-19T08:32:24.382Z,1023.85
2023-05-19T08:33:24.345Z,1023.83
2023-05-19T08:34:24.394Z,1023.84
2023-05-19T08:35:24.350Z,1023.79
2023-05-19T08:36:24.291Z,1023.80
2023-05-19T08:37:24.307Z,1023.84
2023-05-19T08:38:24.323Z,1023.84
2023-05-19T08:39:24.275Z,1023.79
2023-05-19T08:40:37.771Z,1023.73
2023-05-19T08:41:40.557Z,1023.70
2023-05-19T08:42:31.985Z,1023.74
2023-05-19T08:43:26.939Z,1023.70
2023-05-19T08:44:25.841Z,1023.72
2023-05-19T08:45:26.332Z,1023.73
2023-05-19T08:46:45.857Z,1023.73
2023-05-19T08:47:29.234Z,1023.73
2023-05-19T08:48:26.494Z,1023.74
2023-05-19T08:49:29.320Z,1023.67
2023-05-19T08:50:24.428Z,1023.68
2023-05-19T08:51:32.339Z,1023.68
2023-05-19T08:52:24.089Z,1023.65
2023-05-19T08:53:33.167Z,1023.65
2023-05-19T08:54:34.341Z,1023.69
2023-05-19T08:55:30.448Z,1023.65
2023-05-19T08:56:33.294Z,1023.63
2023-05-19T08:57:25.094Z,1023.66
2023-05-19T08:58:29.070Z,1023.69
2023-05-19T08:59:32.239Z,1023.62
2023-05-19T09:00:28.737Z,1023.59
2023-05-19T09:02:50.305Z,1023.57
2023-05-19T09:03:39.217Z,1023.54
2023-05-19T09:04:29.832Z,1023.63
2023-05-19T09:05:23.954Z,1023.60
2023-05-19T09:06:25.855Z,1023.59
2023-05-19T09:07:43.331Z,1023.56
2023-05-19T09:08:30.973Z,1023.60
2023-05-19T09:09:24.929Z,1023.60
2023-05-19T09:10:34.615Z,1023.58
2023-05-19T09:11:32.150Z,1023.58
2023-05-19T09:12:31.569Z,1023.57
2023-05-19T09:13:24.905Z,1023.56
2023-05-19T09:14:25.431Z,1023.54
2023-05-19T09:15:23.809Z,1023.53
2023-05-19T09:16:23.778Z,1023.51
2023-05-19T09:17:23.740Z,1023.50
2023-05-19T09:18:23.782Z,1023.48
2023-05-19T09:19:23.749Z,1023.47
2023-05-19T09:20:24.035Z,1023.45
2023-05-19T09:21:23.794Z,1023.44
2023-05-19T09:22:28.618Z,1023.44
2023-05-19T09:23:29.860Z,1023.41
2023-05-19T09:24:23.655Z,1023.41
2023-05-19T09:25:27.445Z,1023.42
2023-05-19T09:26:32.406Z,1023.45
2023-05-19T09:27:26.412Z,1023.46
2023-05-19T09:28:32.880Z,1023.48
2023-05-19T09:29:24.597Z,1023.47
2023-05-19T09:30:30.730Z,1023.47
2023-05-19T09:31:56.801Z,1023.43
2023-05-19T09:32:40.504Z,1023.42
2023-05-19T09:33:27.437Z,1023.45
2023-05-19T09:34:25.252Z,1023.49
2023-05-19T09:35:31.683Z,1023.49
2023-05-19T09:36:37.553Z,1023.48
2023-05-19T09:38:06.166Z,1023.36
2023-05-19T09:38:26.432Z,1023.31
2023-05-19T09:39:28.060Z,1023.31
2023-05-19T09:40:27.244Z,1023.23
2023-05-19T09:41:38.252Z,1023.24
2023-05-19T09:42:23.427Z,1023.26
2023-05-19T09:43:25.597Z,1023.26
2023-05-19T09:44:27.547Z,1023.32
2023-05-19T09:45:37.634Z,1023.32
2023-05-19T09:46:27.967Z,1023.22
2023-05-19T09:47:27.943Z,1023.24
2023-05-19T09:48:25.123Z,1023.16
2023-05-19T09:49:28.491Z,1023.14
2023-05-19T09:50:23.355Z,1023.13
2023-05-19T09:51:41.934Z,1023.11
2023-05-19T09:52:28.663Z,1023.21
2023-05-19T09:56:04.092Z,1023.13
2023-05-19T09:57:00.234Z,1023.07
2023-05-19T09:58:00.383Z,1023.07
2023-05-19T09:59:02.059Z,1023.02
2023-05-19T10:00:08.499Z,1023.03
2023-05-19T10:01:00.041Z,1023.00
2023-05-19T10:02:00.118Z,1023.03
2023-05-19T10:03:00.027Z,1022.97
2023-05-19T10:03:59.873Z,1023.04
2023-05-19T10:05:01.154Z,1023.02
2023-05-19T10:06:00.305Z,1023.06
2023-05-19T10:07:01.094Z,1023.00
2023-05-19T10:08:02.507Z,1022.96
2023-05-19T10:09:00.103Z,1022.95
2023-05-19T10:09:59.889Z,1022.98
2023-05-19T10:10:59.903Z,1022.95
2023-05-19T10:11:59.782Z,1022.95
2023-05-19T10:12:59.877Z,1022.93
2023-05-19T10:13:59.815Z,1022.87
2023-05-19T10:14:59.775Z,1022.93
2023-05-19T10:16:00.357Z,1022.91
2023-05-19T10:16:59.940Z,1022.90
2023-05-19T10:17:59.837Z,1022.92
2023-05-19T10:18:59.736Z,1022.90
2023-05-19T10:19:59.718Z,1022.85
2023-05-19T10:20:59.757Z,1022.82
2023-05-19T10:21:59.776Z,1022.80
2023-05-19T10:22:59.666Z,1022.90
2023-05-19T10:23:59.715Z,1022.85
2023-05-19T10:24:59.653Z,1022.89
2023-05-19T10:25:59.622Z,1022.90
2023-05-19T10:26:59.607Z,1022.94
2023-05-19T10:27:59.577Z,1022.94
2023-05-19T10:28:59.581Z,1022.96
2023-05-19T10:29:59.634Z,1022.89
2023-05-19T10:30:59.579Z,1022.87
2023-05-19T10:31:59.710Z,1022.91
2023-05-19T10:32:59.623Z,1022.91
2023-05-19T10:33:59.571Z,1022.96
2023-05-19T10:34:59.539Z,1022.93
2023-05-19T10:35:59.515Z,1022.87
2023-05-19T10:36:59.557Z,1022.89
2023-05-19T10:37:59.672Z,1022.84
2023-05-19T10:38:59.498Z,1022.85
2023-05-19T10:39:59.515Z,1022.84
2023-05-19T10:40:59.445Z,1022.85
2023-05-19T10:41:59.437Z,1022.85
2023-05-19T10:42:59.366Z,1022.90
2023-05-19T10:43:59.401Z,1022.84
2023-05-19T10:44:59.442Z,1022.84
2023-05-19T10:45:59.447Z,1022.83
2023-05-19T10:46:59.455Z,1022.85
2023-05-19T10:47:59.543Z,1022.80
2023-05-19T10:48:59.405Z,1022.77
2023-05-19T10:49:59.495Z,1022.75
2023-05-19T10:50:59.263Z,1022.65
2023-05-19T10:51:59.288Z,1022.66
2023-05-19T10:52:59.329Z,1022.77
2023-05-19T10:53:59.360Z,1022.75
2023-05-19T10:54:59.207Z,1022.75
2023-05-19T10:55:59.258Z,1022.75
2023-05-19T10:56:59.181Z,1022.80
2023-05-19T10:57:59.157Z,1022.79
2023-05-19T10:58:59.143Z,1022.76
2023-05-19T10:59:59.205Z,1022.75
2023-05-19T11:00:59.141Z,1022.71
2023-05-19T11:01:59.168Z,1022.69
2023-05-19T11:02:59.199Z,1022.71
2023-05-19T11:03:59.279Z,1022.68
2023-05-19T11:04:59.137Z,1022.66
2023-05-19T11:05:59.210Z,1022.68
2023-05-19T11:06:59.111Z,1022.64
2023-05-19T11:07:59.032Z,1022.59
2023-05-19T11:08:59.073Z,1022.61
2023-05-19T11:09:59.117Z,1022.55
2023-05-19T11:10:59.020Z,1022.53
2023-05-19T11:11:59.008Z,1022.62
2023-05-19T11:12:58.960Z,1022.59
2023-05-19T11:13:58.970Z,1022.62
2023-05-19T11:15:01.525Z,1022.54
2023-05-19T11:16:00.128Z,1022.55
2023-05-19T11:16:59.094Z,1022.57
2023-05-19T11:17:58.949Z,1022.56
2023-05-19T11:18:59.001Z,1022.52
2023-05-19T11:19:58.909Z,1022.61
2023-05-19T11:20:58.898Z,1022.61
2023-05-19T11:21:58.848Z,1022.53
2023-05-19T11:22:58.980Z,1022.53
2023-05-19T11:23:58.884Z,1022.47
2023-05-19T11:24:58.835Z,1022.49
2023-05-19T11:25:58.855Z,1022.53
2023-05-19T11:26:58.851Z,1022.60
2023-05-19T11:27:58.801Z,1022.54
2023-05-19T11:28:58.926Z,1022.57
2023-05-19T11:29:58.830Z,1022.57
2023-05-19T11:30:58.801Z,1022.55
2023-05-19T11:31:58.787Z,1022.54
2023-05-19T11:32:58.760Z,1022.50
2023-05-19T11:33:58.696Z,1022.43
2023-05-19T11:34:58.667Z,1022.40
2023-05-19T11:35:58.811Z,1022.40
2023-05-19T11:36:58.666Z,1022.38
2023-05-19T11:37:58.713Z,1022.41
2023-05-19T11:38:58.664Z,1022.34
2023-05-19T11:39:58.644Z,1022.41
2023-05-19T11:40:58.608Z,1022.39
2023-05-19T11:41:58.586Z,1022.34
2023-05-19T11:42:58.588Z,1022.44
2023-05-19T11:43:58.627Z,1022.37
2023-05-19T11:44:58.606Z,1022.40
2023-05-19T11:45:58.676Z,1022.40
2023-05-19T11:46:58.521Z,1022.38
2023-05-19T11:48:02.648Z,1022.31
2023-05-19T11:48:58.593Z,1022.35
2023-05-19T11:49:58.495Z,1022.39
2023-05-19T11:50:58.487Z,1022.40
2023-05-19T11:51:58.480Z,1022.28
2023-05-19T11:52:58.464Z,1022.29
2023-05-19T11:54:06.080Z,1022.22
2023-05-19T11:54:58.485Z,1022.29
2023-05-19T11:55:58.471Z,1022.28
2023-05-19T11:56:58.421Z,1022.26
2023-05-19T11:58:04.061Z,1022.18
2023-05-19T11:58:59.364Z,1022.17
2023-05-19T11:59:58.401Z,1022.19
2023-05-19T12:00:58.383Z,1022.19
2023-05-19T12:01:58.372Z,1022.12
2023-05-19T12:02:58.430Z,1022.19
2023-05-19T12:03:58.379Z,1022.21
2023-05-19T12:04:58.394Z,1022.16
2023-05-19T12:05:58.318Z,1022.18
2023-05-19T12:06:58.252Z,1022.18
2023-05-19T12:07:58.238Z,1022.14
2023-05-19T12:08:58.227Z,1022.21